createdAt,value
2023-05-02T00:01:07.088Z,95.9667
2023-05-02T00:02:07.750Z,95.7331
2023-05-02T00:03:07.878Z,96.1998
2023-05-02T00:04:08.244Z,96.2954
2023-05-02T00:06:08.786Z,96.5111
2023-05-02T00:10:11.966Z,97.0165
2023-05-02T00:11:12.571Z,97.0175
2023-05-02T00:12:13.206Z,96.9831
2023-05-02T00:14:13.001Z,97.0287
2023-05-02T00:15:14.543Z,97.1367
2023-05-02T00:18:16.146Z,97.2486
2023-05-02T00:19:17.969Z,97.3939
2023-05-02T00:20:18.667Z,97.5094
2023-05-02T00:23:20.368Z,97.6320
2023-05-02T00:24:21.569Z,97.7831
2023-05-02T00:26:22.552Z,97.8261
2023-05-02T00:27:23.255Z,97.7473
2023-05-02T00:28:24.052Z,97.6744
2023-05-02T00:29:24.820Z,97.7218
2023-05-02T00:30:25.774Z,97.7284
2023-05-02T00:31:26.239Z,97.8206
2023-05-02T00:32:26.357Z,97.9810
2023-05-02T00:33:28.176Z,98.0659
2023-05-02T00:34:28.697Z,98.1344
2023-05-02T00:35:29.015Z,98.1680
2023-05-02T00:36:29.556Z,98.1436
2023-05-02T00:37:30.268Z,98.1989
2023-05-02T00:38:30.582Z,98.2117
2023-05-02T00:39:30.651Z,97.8004
2023-05-02T00:40:31.065Z,97.6759
2023-05-02T00:41:33.393Z,97.8063
2023-05-02T00:48:39.331Z,97.6139
2023-05-02T00:49:40.293Z,97.6497
2023-05-02T00:50:41.221Z,97.5884
2023-05-02T00:51:41.487Z,97.6401
2023-05-02T00:52:41.719Z,97.7254
2023-05-02T00:53:43.333Z,97.6955
2023-05-02T00:54:44.444Z,97.6596
2023-05-02T00:55:45.986Z,97.6107
2023-05-02T00:56:46.413Z,97.4658
2023-05-02T00:59:48.502Z,97.4005
2023-05-02T01:00:49.697Z,97.4223
2023-05-02T01:01:50.073Z,97.4097
2023-05-02T01:04:53.426Z,97.6025
2023-05-02T01:05:54.696Z,97.6624
2023-05-02T01:06:55.242Z,97.7889
2023-05-02T01:07:55.453Z,97.7923
2023-05-02T01:08:55.953Z,97.8728
2023-05-02T01:09:57.382Z,97.8079
2023-05-02T01:10:58.428Z,97.8456
2023-05-02T01:11:58.872Z,97.6330
2023-05-02T01:12:58.930Z,97.7475
2023-05-02T01:14:00.051Z,97.5112
2023-05-02T01:15:00.100Z,97.6804
2023-05-02T01:16:00.999Z,97.6926
2023-05-02T01:17:03.263Z,97.5414
2023-05-02T01:18:04.347Z,97.4892
2023-05-02T01:19:04.767Z,97.6141
2023-05-02T01:20:06.136Z,97.5428
2023-05-02T01:23:08.882Z,98.0038
2023-05-02T01:28:10.662Z,97.8754
2023-05-02T01:29:11.026Z,97.8426
2023-05-02T01:30:12.871Z,97.9325
2023-05-02T01:32:12.885Z,98.2048
2023-05-02T01:33:14.594Z,98.3187
2023-05-02T01:34:15.209Z,98.3886
2023-05-02T01:35:15.437Z,98.3771
2023-05-02T01:36:16.771Z,98.4659
2023-05-02T01:37:17.601Z,98.6323
2023-05-02T01:38:18.600Z,98.6632
2023-05-02T01:39:19.665Z,98.4702
2023-05-02T01:40:20.752Z,98.5097
2023-05-02T01:41:21.058Z,98.6022
2023-05-02T01:42:23.054Z,98.6303
2023-05-02T01:43:24.116Z,98.6970
2023-05-02T01:44:25.458Z,98.6694
2023-05-02T01:53:40.722Z,97.9362
2023-05-02T01:54:40.725Z,97.9064
2023-05-02T01:55:42.320Z,97.9828
2023-05-02T01:56:43.009Z,98.0503
2023-05-02T01:57:43.003Z,98.1677
2023-05-02T01:58:43.858Z,98.1400
2023-05-02T01:59:45.305Z,98.1252
2023-05-02T02:00:46.724Z,98.2122
2023-05-02T02:01:47.097Z,98.3783
2023-05-02T02:09:58.669Z,98.7912
2023-05-02T02:10:59.668Z,98.6679
2023-05-02T02:12:01.098Z,98.6452
2023-05-02T02:13:02.648Z,98.4522
2023-05-02T02:16:05.020Z,98.5650
2023-05-02T02:17:05.446Z,98.6492
2023-05-02T02:18:05.500Z,98.7032
2023-05-02T02:19:06.204Z,98.6602
2023-05-02T02:20:06.965Z,98.5977
2023-05-02T02:21:07.532Z,98.4952
2023-05-02T02:22:08.128Z,98.6735
2023-05-02T02:23:08.715Z,98.3403
2023-05-02T02:24:09.335Z,97.8410
2023-05-02T02:25:09.831Z,97.8500
2023-05-02T02:26:10.436Z,97.5740
2023-05-02T02:27:10.981Z,97.8438
2023-05-02T02:28:11.444Z,97.6804
2023-05-02T02:29:11.952Z,97.7224
2023-05-02T02:30:12.457Z,97.3844
2023-05-02T02:31:13.349Z,97.4768
2023-05-02T02:32:14.153Z,97.5321
2023-05-02T02:33:14.903Z,97.3786
2023-05-02T02:34:15.631Z,97.4291
2023-05-02T02:35:16.209Z,97.6573
2023-05-02T02:36:16.631Z,97.7106
2023-05-02T02:37:17.357Z,97.7671
2023-05-02T02:38:17.980Z,97.8057
2023-05-02T02:39:18.464Z,97.7156
2023-05-02T02:40:19.156Z,97.5376
2023-05-02T02:41:19.584Z,97.3759
2023-05-02T02:42:20.172Z,97.3639
2023-05-02T02:43:20.780Z,97.4107
2023-05-02T02:44:20.845Z,97.2785
2023-05-02T02:45:22.391Z,97.3549
2023-05-02T02:47:23.304Z,96.7639
2023-05-02T02:48:23.652Z,96.4071
2023-05-02T02:49:24.200Z,96.6518
2023-05-02T02:50:24.518Z,96.5983
2023-05-02T02:51:25.107Z,96.5552
2023-05-02T02:52:25.443Z,96.1648
2023-05-02T02:53:25.558Z,96.1181
2023-05-02T02:54:30.136Z,96.1483
2023-05-02T02:55:30.545Z,96.2066
2023-05-02T02:56:30.925Z,96.3057
2023-05-02T02:57:31.417Z,96.3829
2023-05-02T02:58:31.922Z,96.2912
2023-05-02T02:59:32.215Z,96.5489
2023-05-02T03:00:32.633Z,96.5031
2023-05-02T03:01:33.231Z,95.8850
2023-05-02T03:02:33.768Z,95.6336
2023-05-02T03:03:35.018Z,95.8483
2023-05-02T03:04:35.653Z,96.0055
2023-05-02T03:05:36.197Z,95.4568
2023-05-02T03:06:37.030Z,95.5902
2023-05-02T03:07:37.739Z,95.7490
2023-05-02T03:08:38.277Z,95.6138
2023-05-02T03:09:38.801Z,95.2689
2023-05-02T03:10:39.112Z,95.1457
2023-05-02T03:11:39.611Z,95.0363
2023-05-02T03:12:40.448Z,95.3540
2023-05-02T03:13:41.335Z,95.0976
2023-05-02T03:14:42.106Z,94.8486
2023-05-02T03:15:42.537Z,94.7059
2023-05-02T03:16:43.512Z,94.7849
2023-05-02T03:17:44.331Z,94.4090
2023-05-02T03:18:45.964Z,94.1042
2023-05-02T03:19:46.263Z,93.9952
2023-05-02T03:20:46.850Z,94.4897
2023-05-02T03:21:47.592Z,94.8124
2023-05-02T03:22:48.559Z,95.1375
2023-05-02T03:23:49.089Z,95.0153
2023-05-02T03:24:49.609Z,94.7299
2023-05-02T03:25:51.466Z,94.8775
2023-05-02T03:27:51.123Z,95.6247
2023-05-02T03:28:51.695Z,96.0825
2023-05-02T03:29:52.194Z,96.7284
2023-05-02T03:30:52.463Z,96.8952
2023-05-02T03:31:53.252Z,96.8310
2023-05-02T03:32:54.439Z,96.6332
2023-05-02T03:33:55.195Z,95.5197
2023-05-02T03:34:55.690Z,95.1644
2023-05-02T03:35:56.140Z,94.7335
2023-05-02T03:36:56.640Z,94.3523
2023-05-02T03:37:57.158Z,94.4612
2023-05-02T03:38:57.523Z,94.2804
2023-05-02T03:39:58.216Z,93.9362
2023-05-02T03:40:58.253Z,94.0119
2023-05-02T03:41:58.707Z,93.8471
2023-05-02T03:42:59.150Z,93.8771
2023-05-02T03:43:59.566Z,93.8300
2023-05-02T03:45:00.210Z,93.8735
2023-05-02T03:46:01.380Z,94.2356
2023-05-02T03:47:02.243Z,94.3144
2023-05-02T03:48:03.352Z,94.4642
2023-05-02T03:49:04.032Z,94.7146
2023-05-02T03:50:04.377Z,94.5327
2023-05-02T03:51:04.930Z,94.7683
2023-05-02T03:52:05.598Z,94.7460
2023-05-02T03:53:06.814Z,94.5373
2023-05-02T03:54:07.365Z,94.8869
2023-05-02T03:55:08.033Z,94.9352
2023-05-02T03:56:08.390Z,94.6351
2023-05-02T03:57:09.167Z,94.5003
2023-05-02T03:58:09.568Z,94.1085
2023-05-02T03:59:10.396Z,94.2701
2023-05-02T04:00:11.302Z,94.4461
2023-05-02T04:01:11.843Z,94.6242
2023-05-02T04:02:12.370Z,94.9807
2023-05-02T04:03:12.573Z,94.7253
2023-05-02T04:04:13.349Z,95.3600
2023-05-02T04:05:13.825Z,95.7744
2023-05-02T04:06:14.955Z,95.9938
2023-05-02T04:07:15.484Z,95.4596
2023-05-02T04:08:16.014Z,94.7586
2023-05-02T04:09:16.684Z,94.8240
2023-05-02T04:10:17.772Z,94.6127
2023-05-02T04:11:18.410Z,94.6886
2023-05-02T04:12:18.945Z,95.0859
2023-05-02T04:13:19.293Z,95.6667
2023-05-02T04:14:20.025Z,95.5352
2023-05-02T04:15:20.440Z,95.2327
2023-05-02T04:16:21.228Z,94.7266
2023-05-02T04:17:21.301Z,94.7343
2023-05-02T04:18:22.139Z,94.7986
2023-05-02T04:19:22.699Z,94.5664
2023-05-02T04:20:23.225Z,94.8046
2023-05-02T04:21:23.785Z,94.9529
2023-05-02T04:22:24.430Z,94.8147
2023-05-02T04:23:24.690Z,95.2520
2023-05-02T04:24:25.289Z,95.7066
2023-05-02T04:25:25.726Z,95.9111
2023-05-02T04:26:26.216Z,95.6552
2023-05-02T04:27:26.367Z,94.2415
2023-05-02T04:28:26.884Z,94.0671
2023-05-02T04:29:27.525Z,94.3738
2023-05-02T04:30:28.464Z,94.1492
2023-05-02T04:31:29.119Z,94.1220
2023-05-02T04:32:29.922Z,94.8383
2023-05-02T04:33:30.813Z,95.5232
2023-05-02T04:34:31.210Z,96.0960
2023-05-02T04:35:31.888Z,96.4257
2023-05-02T04:36:32.391Z,96.6798
2023-05-02T04:37:32.600Z,96.6937
2023-05-02T04:38:33.145Z,96.7401
2023-05-02T04:39:33.626Z,96.6164
2023-05-02T04:40:34.134Z,96.6487
2023-05-02T04:41:34.844Z,96.7860
2023-05-02T04:42:35.237Z,97.0353
2023-05-02T04:43:35.671Z,97.1543
2023-05-02T04:44:36.511Z,97.1785
2023-05-02T04:45:37.186Z,97.2695
2023-05-02T04:46:38.313Z,97.2397
2023-05-02T04:47:38.949Z,97.3181
2023-05-02T04:48:39.908Z,97.3752
2023-05-02T04:49:40.877Z,97.3841
2023-05-02T04:50:42.156Z,97.4057
2023-05-02T04:51:42.968Z,97.5143
2023-05-02T04:52:43.576Z,97.4986
2023-05-02T04:53:43.920Z,97.4971
2023-05-02T04:54:44.591Z,97.5051
2023-05-02T04:55:44.948Z,97.4931
2023-05-02T04:56:45.565Z,97.5651
2023-05-02T04:57:46.820Z,97.5963
2023-05-02T04:58:47.317Z,97.6051
2023-05-02T04:59:47.971Z,97.6785
2023-05-02T05:00:48.571Z,97.7483
2023-05-02T05:01:49.336Z,97.7480
2023-05-02T05:02:50.978Z,97.7287
2023-05-02T05:03:51.075Z,97.7723
2023-05-02T05:04:51.679Z,97.7431
2023-05-02T05:05:51.952Z,97.7764
2023-05-02T05:06:53.125Z,97.9034
2023-05-02T05:07:53.816Z,97.9572
2023-05-02T05:08:54.482Z,98.0186
2023-05-02T05:09:55.980Z,97.9709
2023-05-02T05:10:57.005Z,97.9271
2023-05-02T05:11:57.691Z,97.9554
2023-05-02T05:12:58.149Z,98.0499
2023-05-02T05:13:58.874Z,98.1476
2023-05-02T05:14:59.354Z,98.2388
2023-05-02T05:16:00.255Z,97.9986
2023-05-02T05:17:00.423Z,97.5250
2023-05-02T05:18:01.003Z,97.0267
2023-05-02T05:19:01.340Z,96.6263
2023-05-02T05:20:02.276Z,96.3571
2023-05-02T05:21:02.857Z,96.5113
2023-05-02T05:23:04.324Z,96.3587
2023-05-02T05:24:04.822Z,96.0080
2023-05-02T05:25:05.699Z,95.1143
2023-05-02T05:26:06.544Z,95.6859
2023-05-02T05:27:07.396Z,96.2499
2023-05-02T05:28:08.083Z,96.3627
2023-05-02T05:29:08.776Z,96.1070
2023-05-02T05:30:09.729Z,96.0644
2023-05-02T05:31:10.599Z,96.3946
2023-05-02T05:32:11.668Z,96.0808
2023-05-02T05:33:12.393Z,96.1898
2023-05-02T05:34:12.814Z,95.9930
2023-05-02T05:35:13.551Z,95.8155
2023-05-02T05:36:14.774Z,96.0356
2023-05-02T05:37:15.363Z,95.3187
2023-05-02T05:38:15.907Z,94.5667
2023-05-02T05:39:16.665Z,94.2373
2023-05-02T05:40:17.581Z,94.0263
2023-05-02T05:41:18.292Z,94.3633
2023-05-02T05:42:19.053Z,94.3877
2023-05-02T05:43:20.089Z,94.3213
2023-05-02T05:44:20.576Z,93.7155
2023-05-02T05:45:21.507Z,93.5319
2023-05-02T05:46:23.146Z,93.5009
2023-05-02T05:47:24.179Z,93.5626
2023-05-02T05:48:25.318Z,93.5079
2023-05-02T05:49:26.124Z,93.7968
2023-05-02T05:50:26.754Z,93.9202
2023-05-02T05:51:27.699Z,94.4160
2023-05-02T05:52:28.406Z,94.6032
2023-05-02T05:53:29.437Z,94.6981
2023-05-02T05:54:30.369Z,94.3857
2023-05-02T05:55:31.087Z,94.5973
2023-05-02T05:56:31.939Z,94.5314
2023-05-02T05:57:32.654Z,94.0702
2023-05-02T05:58:33.381Z,94.0549
2023-05-02T05:59:34.355Z,94.4429
2023-05-02T06:00:35.794Z,94.6581
2023-05-02T06:01:36.605Z,93.4340
2023-05-02T06:02:36.757Z,93.2398
2023-05-02T06:03:37.296Z,93.6567
2023-05-02T06:04:37.576Z,93.8938
2023-05-02T06:05:38.139Z,92.8919
2023-05-02T06:06:39.065Z,92.7159
2023-05-02T06:07:39.947Z,93.1562
2023-05-02T06:08:40.459Z,93.6529
2023-05-02T06:09:41.297Z,93.5167
2023-05-02T06:10:42.549Z,93.7447
2023-05-02T06:11:43.163Z,93.6815
2023-05-02T06:12:45.209Z,92.6288
2023-05-02T06:13:45.256Z,92.1822
2023-05-02T06:14:45.698Z,92.4338
2023-05-02T06:15:46.295Z,92.8990
2023-05-02T06:16:47.197Z,93.0005
2023-05-02T06:17:48.071Z,92.9463
2023-05-02T06:18:48.926Z,93.8015
2023-05-02T06:19:49.497Z,92.9891
2023-05-02T06:20:49.867Z,92.5302
2023-05-02T06:21:50.683Z,92.3488
2023-05-02T06:22:51.127Z,92.9825
2023-05-02T06:23:51.946Z,93.4234
2023-05-02T06:24:52.526Z,93.2136
2023-05-02T06:25:53.033Z,92.6395
2023-05-02T06:26:53.743Z,92.7030
2023-05-02T06:27:54.297Z,92.2929
2023-05-02T06:28:54.896Z,92.6071
2023-05-02T06:29:55.670Z,93.1137
2023-05-02T06:30:56.111Z,94.0264
2023-05-02T06:31:57.171Z,93.4068
2023-05-02T06:32:57.998Z,93.0727
2023-05-02T06:33:58.762Z,93.9135
2023-05-02T06:34:59.503Z,93.7355
2023-05-02T06:36:01.834Z,93.5784
2023-05-02T06:37:00.392Z,93.7619
2023-05-02T06:38:01.067Z,93.0752
2023-05-02T06:39:01.676Z,93.0056
2023-05-02T06:40:03.288Z,93.6543
2023-05-02T06:41:04.238Z,93.5616
2023-05-02T06:42:04.521Z,93.5852
2023-05-02T06:43:05.403Z,93.5361
2023-05-02T06:44:06.067Z,93.6329
2023-05-02T06:45:06.750Z,93.8902
2023-05-02T06:46:07.472Z,94.0158
2023-05-02T06:47:08.174Z,94.0135
2023-05-02T06:48:08.476Z,93.4565
2023-05-02T06:49:09.323Z,93.0510
2023-05-02T06:50:10.527Z,92.0267
2023-05-02T06:51:11.270Z,91.1509
2023-05-02T06:52:12.053Z,91.2588
2023-05-02T06:53:12.657Z,90.2034
2023-05-02T06:54:13.645Z,90.1012
2023-05-02T06:55:14.383Z,90.3995
2023-05-02T06:56:15.016Z,90.8294
2023-05-02T06:57:15.782Z,90.2380
2023-05-02T06:58:16.264Z,89.7402
2023-05-02T06:59:16.965Z,89.7530
2023-05-02T07:00:17.871Z,90.8837
2023-05-02T07:01:18.953Z,90.9177
2023-05-02T07:02:19.571Z,91.1767
2023-05-02T07:03:20.679Z,90.8583
2023-05-02T07:04:21.361Z,90.6486
2023-05-02T07:05:22.068Z,90.3600
2023-05-02T07:06:22.698Z,90.4893
2023-05-02T07:07:23.315Z,90.2264
2023-05-02T07:08:23.891Z,90.7909
2023-05-02T07:09:24.390Z,90.7652
2023-05-02T07:10:25.710Z,90.5675
2023-05-02T07:11:26.374Z,89.6938
2023-05-02T07:12:27.556Z,90.1616
2023-05-02T07:13:28.502Z,90.4212
2023-05-02T07:14:29.056Z,90.3217
2023-05-02T07:15:29.466Z,89.8848
2023-05-02T07:16:30.428Z,89.7931
2023-05-02T07:17:31.278Z,89.6783
2023-05-02T07:18:32.279Z,89.7976
2023-05-02T07:19:32.899Z,90.1456
2023-05-02T07:20:33.948Z,90.6693
2023-05-02T07:21:34.629Z,90.6945
2023-05-02T07:22:35.273Z,90.8225
2023-05-02T07:23:35.706Z,91.0424
2023-05-02T07:24:36.393Z,90.9335
2023-05-02T07:25:37.238Z,90.9627
2023-05-02T07:26:37.998Z,90.7240
2023-05-02T07:27:38.576Z,89.9345
2023-05-02T07:28:39.195Z,90.3546
2023-05-02T07:29:39.896Z,90.6816
2023-05-02T07:30:40.543Z,90.2429
2023-05-02T07:31:41.119Z,90.1036
2023-05-02T07:32:42.016Z,89.4078
2023-05-02T07:33:42.967Z,89.2831
2023-05-02T07:34:43.610Z,89.8377
2023-05-02T07:35:44.261Z,89.9676
2023-05-02T07:36:44.616Z,89.8739
2023-05-02T07:37:45.219Z,89.7644
2023-05-02T07:38:45.806Z,89.9756
2023-05-02T07:39:46.246Z,90.0098
2023-05-02T07:40:46.890Z,89.5019
2023-05-02T07:41:47.482Z,89.0929
2023-05-02T07:42:47.985Z,88.9683
2023-05-02T07:43:48.710Z,89.1861
2023-05-02T07:44:49.178Z,89.3632
2023-05-02T07:45:50.150Z,88.9875
2023-05-02T07:46:50.276Z,89.3720
2023-05-02T07:47:50.659Z,89.2399
2023-05-02T07:48:51.588Z,89.2467
2023-05-02T07:49:52.330Z,89.2011
2023-05-02T07:50:52.535Z,89.0414
2023-05-02T07:51:53.265Z,89.4579
2023-05-02T07:52:53.812Z,90.0619
2023-05-02T07:53:54.225Z,89.2977
2023-05-02T07:54:54.900Z,89.6329
2023-05-02T07:55:55.296Z,88.8823
2023-05-02T07:56:55.821Z,88.7563
2023-05-02T07:57:56.472Z,87.9235
2023-05-02T07:58:56.895Z,88.4678
2023-05-02T07:59:57.693Z,88.3049
2023-05-02T08:00:58.092Z,88.5366
2023-05-02T08:01:58.684Z,88.4092
2023-05-02T08:02:59.985Z,88.4730
2023-05-02T08:04:00.656Z,89.2424
2023-05-02T08:05:01.479Z,88.7775
2023-05-02T08:06:01.616Z,89.1188
2023-05-02T08:07:02.450Z,89.8314
2023-05-02T08:08:03.256Z,89.8850
2023-05-02T08:09:03.702Z,88.7057
2023-05-02T08:10:04.557Z,85.6253
2023-05-02T08:11:04.433Z,85.6799
2023-05-02T08:12:05.369Z,86.8061
2023-05-02T08:13:06.111Z,86.8501
2023-05-02T08:14:06.858Z,87.9937
2023-05-02T08:15:07.342Z,87.8606
2023-05-02T08:16:08.426Z,86.6003
2023-05-02T08:17:08.751Z,86.8801
2023-05-02T08:18:09.497Z,87.0854
2023-05-02T08:19:10.342Z,86.5274
2023-05-02T08:20:10.403Z,86.4830
2023-05-02T08:21:11.092Z,86.2789
2023-05-02T08:22:12.040Z,86.4847
2023-05-02T08:23:12.642Z,86.0989
2023-05-02T08:24:14.329Z,84.4715
2023-05-02T08:25:15.072Z,85.0990
2023-05-02T08:26:15.731Z,85.1143
2023-05-02T08:27:16.498Z,84.3953
2023-05-02T08:28:17.299Z,84.8559
2023-05-02T08:29:17.870Z,84.5151
2023-05-02T08:30:18.828Z,84.6437
2023-05-02T08:31:19.667Z,84.7815
2023-05-02T08:32:20.872Z,85.3294
2023-05-02T08:33:21.947Z,85.3162
2023-05-02T08:34:22.707Z,84.8183
2023-05-02T08:35:23.324Z,84.7760
2023-05-02T08:36:24.253Z,84.5403
2023-05-02T08:37:24.656Z,84.0418
2023-05-02T08:38:25.266Z,83.5993
2023-05-02T08:39:26.007Z,84.5219
2023-05-02T08:40:38.199Z,86.8177
2023-05-02T08:41:27.210Z,84.3761
2023-05-02T08:42:27.618Z,82.4128
2023-05-02T08:43:28.279Z,82.8350
2023-05-02T08:44:29.000Z,81.3951
2023-05-02T08:45:30.035Z,81.7571
2023-05-02T08:46:31.133Z,82.7668
2023-05-02T08:47:32.110Z,81.5647
2023-05-02T08:48:32.182Z,81.0422
2023-05-02T08:49:32.692Z,81.2209
2023-05-02T08:50:33.390Z,79.9408
2023-05-02T08:51:33.481Z,80.3839
2023-05-02T08:52:34.016Z,80.5450
2023-05-02T08:53:34.749Z,80.6369
2023-05-02T08:54:35.250Z,80.5432
2023-05-02T08:55:35.915Z,80.3555
2023-05-02T08:56:36.837Z,81.1422
2023-05-02T08:57:37.366Z,80.9392
2023-05-02T08:58:38.020Z,80.3586
2023-05-02T08:59:39.189Z,79.5573
2023-05-02T09:00:39.736Z,79.1411
2023-05-02T09:01:40.886Z,78.8000
2023-05-02T09:02:41.629Z,78.5087
2023-05-02T09:03:42.385Z,77.0934
2023-05-02T09:04:43.418Z,77.0758
2023-05-02T09:05:43.375Z,78.1597
2023-05-02T09:06:44.172Z,80.1227
2023-05-02T09:07:44.817Z,77.7160
2023-05-02T09:08:45.266Z,76.8892
2023-05-02T09:09:45.840Z,76.1920
2023-05-02T09:10:46.480Z,76.2268
2023-05-02T09:11:46.979Z,75.1662
2023-05-02T09:12:47.826Z,74.7687
2023-05-02T09:13:48.353Z,74.4950
2023-05-02T09:14:49.065Z,73.4601
2023-05-02T09:15:49.843Z,74.4846
2023-05-02T09:16:50.631Z,73.3519
2023-05-02T09:17:51.684Z,73.4268
2023-05-02T09:18:52.381Z,74.1653
2023-05-02T09:19:52.977Z,78.5147
2023-05-02T09:20:53.634Z,78.2951
2023-05-02T09:21:54.588Z,78.5809
2023-05-02T09:22:55.200Z,78.0907
2023-05-02T09:23:55.750Z,76.0985
2023-05-02T09:24:56.271Z,76.9300
2023-05-02T09:25:57.628Z,76.9635
2023-05-02T09:26:58.941Z,75.5361
2023-05-02T09:27:59.714Z,74.8054
2023-05-02T09:29:00.481Z,74.0463
2023-05-02T09:30:01.391Z,75.1275
2023-05-02T09:31:02.439Z,75.9176
2023-05-02T09:32:03.750Z,75.9943
2023-05-02T09:33:04.867Z,74.0436
2023-05-02T09:34:05.309Z,73.2803
2023-05-02T09:35:06.225Z,73.7995
2023-05-02T09:36:06.741Z,72.8271
2023-05-02T09:37:07.391Z,74.1971
2023-05-02T09:38:08.093Z,74.4654
2023-05-02T09:39:09.015Z,74.1825
2023-05-02T09:40:09.610Z,72.8480
2023-05-02T09:41:10.418Z,69.4695
2023-05-02T09:42:10.995Z,71.4669
2023-05-02T09:43:11.687Z,71.7539
2023-05-02T09:44:12.276Z,73.4654
2023-05-02T09:45:13.481Z,73.8000
2023-05-02T09:46:14.335Z,75.9193
2023-05-02T09:47:15.536Z,76.3637
2023-05-02T09:48:16.429Z,75.3851
2023-05-02T09:49:17.314Z,74.2380
2023-05-02T09:50:18.118Z,76.5766
2023-05-02T09:51:18.847Z,76.7032
2023-05-02T09:52:19.646Z,75.4548
2023-05-02T09:53:20.155Z,76.7884
2023-05-02T09:54:20.798Z,76.3578
2023-05-02T09:55:21.489Z,74.2802
2023-05-02T09:56:23.298Z,75.2935
2023-05-02T09:57:22.866Z,73.6709
2023-05-02T09:58:23.352Z,74.4256
2023-05-02T09:59:24.042Z,72.9147
2023-05-02T10:00:24.768Z,75.2191
2023-05-02T10:01:25.459Z,74.4615
2023-05-02T10:02:25.965Z,72.9842
2023-05-02T10:03:26.973Z,74.3793
2023-05-02T10:04:28.260Z,75.5394
2023-05-02T10:05:30.176Z,73.9296
2023-05-02T10:06:29.653Z,71.1247
2023-05-02T10:07:30.756Z,70.5178
2023-05-02T10:08:31.706Z,72.7839
2023-05-02T10:09:31.768Z,74.1865
2023-05-02T10:10:32.355Z,73.7729
2023-05-02T10:11:33.368Z,74.6478
2023-05-02T10:12:33.992Z,74.6756
2023-05-02T10:13:34.760Z,74.2334
2023-05-02T10:14:37.191Z,71.2412
2023-05-02T10:15:37.807Z,69.7355
2023-05-02T10:16:39.002Z,67.7053
2023-05-02T10:17:39.847Z,67.0806
2023-05-02T10:18:40.983Z,70.1159
2023-05-02T10:19:41.755Z,71.4232
2023-05-02T10:20:42.421Z,70.1356
2023-05-02T10:21:42.948Z,69.5427
2023-05-02T10:22:43.742Z,69.4364
2023-05-02T10:23:44.374Z,67.5015
2023-05-02T10:24:45.218Z,67.1039
2023-05-02T10:25:45.895Z,67.7763
2023-05-02T10:26:46.455Z,68.7318
2023-05-02T10:27:47.171Z,72.5875
2023-05-02T10:28:48.090Z,71.9515
2023-05-02T10:29:48.794Z,71.1548
2023-05-02T10:30:49.546Z,69.6766
2023-05-02T10:31:50.134Z,70.9558
2023-05-02T10:32:51.159Z,72.5174
2023-05-02T10:33:52.168Z,69.9621
2023-05-02T10:34:52.678Z,69.6635
2023-05-02T10:35:53.326Z,70.3889
2023-05-02T10:36:54.011Z,70.9967
2023-05-02T10:39:04.223Z,71.9125
2023-05-02T10:40:04.851Z,70.6777
2023-05-02T10:41:05.393Z,70.6081
2023-05-02T10:42:06.068Z,70.4203
2023-05-02T10:43:06.707Z,71.6416
2023-05-02T10:44:07.271Z,72.6318
2023-05-02T10:45:07.994Z,72.8587
2023-05-02T10:46:08.557Z,74.0332
2023-05-02T10:47:09.011Z,73.6633
2023-05-02T10:48:09.970Z,74.7955
2023-05-02T10:49:10.492Z,73.7893
2023-05-02T10:50:11.340Z,70.7349
2023-05-02T10:52:11.720Z,71.6015
2023-05-02T10:53:12.339Z,72.7526
2023-05-02T10:54:12.735Z,74.4045
2023-05-02T10:55:13.482Z,75.5125
2023-05-02T10:56:14.205Z,75.2885
2023-05-02T10:57:14.716Z,73.9135
2023-05-02T10:58:15.662Z,71.8876
2023-05-02T10:59:16.472Z,73.5796
2023-05-02T11:00:16.934Z,74.3322
2023-05-02T11:01:17.922Z,73.7451
2023-05-02T11:02:18.752Z,74.0351
2023-05-02T11:03:19.088Z,73.4674
2023-05-02T11:04:19.846Z,73.7633
2023-05-02T11:05:21.120Z,73.1885
2023-05-02T11:06:21.934Z,72.6959
2023-05-02T11:07:23.251Z,72.0168
2023-05-02T11:08:24.325Z,73.4055
2023-05-02T11:09:24.859Z,72.8343
2023-05-02T11:10:25.637Z,74.2446
2023-05-02T11:11:26.048Z,74.3197
2023-05-02T11:12:26.749Z,73.6822
2023-05-02T11:13:27.149Z,73.0174
2023-05-02T11:14:27.760Z,72.7602
2023-05-02T11:15:28.475Z,72.5156
2023-05-02T11:16:29.153Z,72.5925
2023-05-02T11:17:30.108Z,72.6041
2023-05-02T11:18:31.073Z,70.8399
2023-05-02T11:19:31.752Z,71.7548
2023-05-02T11:20:32.519Z,71.7150
2023-05-02T11:21:33.030Z,70.2264
2023-05-02T11:22:33.708Z,69.8572
2023-05-02T11:23:34.393Z,72.8139
2023-05-02T11:24:34.957Z,72.8711
2023-05-02T11:25:35.538Z,70.9002
2023-05-02T11:26:36.148Z,71.1475
2023-05-02T11:27:36.588Z,71.5890
2023-05-02T11:28:37.398Z,72.3158
2023-05-02T11:29:37.886Z,72.5057
2023-05-02T11:30:38.450Z,73.6695
2023-05-02T11:31:39.638Z,72.8013
2023-05-02T11:32:39.660Z,70.5848
2023-05-02T11:33:40.731Z,69.4506
2023-05-02T11:34:41.420Z,71.4269
2023-05-02T11:35:41.637Z,71.8185
2023-05-02T11:36:42.320Z,70.4374
2023-05-02T11:37:42.833Z,70.1693
2023-05-02T11:38:43.406Z,69.9872
2023-05-02T11:39:44.260Z,67.1773
2023-05-02T11:40:44.769Z,64.2692
2023-05-02T11:41:45.464Z,66.0148
2023-05-02T11:42:46.088Z,67.2880
2023-05-02T11:43:46.163Z,69.0123
2023-05-02T11:44:46.813Z,67.9588
2023-05-02T11:45:47.322Z,65.4271
2023-05-02T11:46:48.053Z,69.6071
2023-05-02T11:47:48.845Z,67.8341
2023-05-02T11:48:49.622Z,66.0719
2023-05-02T11:49:50.589Z,62.4062
2023-05-02T11:50:52.612Z,60.8517
2023-05-02T11:51:53.015Z,59.4281
2023-05-02T11:52:53.658Z,64.1482
2023-05-02T11:53:54.409Z,62.9339
2023-05-02T11:54:54.876Z,60.8629
2023-05-02T11:55:56.152Z,58.7649
2023-05-02T11:56:56.600Z,62.3768
2023-05-02T11:57:57.195Z,61.3111
2023-05-02T11:58:57.300Z,60.5149
2023-05-02T11:59:58.129Z,59.2537
2023-05-02T12:00:59.116Z,58.6249
2023-05-02T12:01:59.737Z,58.0194
2023-05-02T12:03:00.751Z,61.2592
2023-05-02T12:04:01.620Z,62.5607
2023-05-02T12:05:03.217Z,62.8092
2023-05-02T12:06:03.306Z,61.0455
2023-05-02T12:07:04.004Z,60.4787
2023-05-02T12:08:05.064Z,59.4078
2023-05-02T12:09:05.496Z,60.1241
2023-05-02T12:10:06.173Z,58.8553
2023-05-02T12:11:06.605Z,56.4397
2023-05-02T12:12:07.259Z,56.3363
2023-05-02T12:13:08.906Z,54.5824
2023-05-02T12:14:08.104Z,54.2391
2023-05-02T12:15:09.395Z,57.5665
2023-05-02T12:16:10.453Z,56.1914
2023-05-02T12:17:11.253Z,49.8609
2023-05-02T12:18:12.520Z,49.9190
2023-05-02T12:19:12.853Z,52.0210
2023-05-02T12:20:13.437Z,54.0797
2023-05-02T12:21:14.137Z,56.5278
2023-05-02T12:22:14.759Z,58.1707
2023-05-02T12:23:15.410Z,60.1788
2023-05-02T12:24:16.229Z,60.2060
2023-05-02T12:25:16.775Z,62.4784
2023-05-02T12:26:16.814Z,63.3557
2023-05-02T12:27:16.995Z,61.9017
2023-05-02T12:28:17.617Z,63.0378
2023-05-02T12:29:18.430Z,66.5934
2023-05-02T12:30:19.143Z,67.7051
2023-05-02T12:31:20.008Z,69.4580
2023-05-02T12:32:20.919Z,72.0625
2023-05-02T12:33:21.740Z,72.8028
2023-05-02T12:34:22.563Z,73.4130
2023-05-02T12:35:23.318Z,74.5477
2023-05-02T12:36:23.265Z,74.6376
2023-05-02T12:37:23.969Z,74.5507
2023-05-02T12:38:25.134Z,75.5854
2023-05-02T12:39:25.930Z,75.6580
2023-05-02T12:40:26.429Z,76.6373
2023-05-02T12:41:27.132Z,77.1365
2023-05-02T12:42:27.931Z,77.0403
2023-05-02T12:43:28.418Z,77.3875
2023-05-02T12:44:28.540Z,78.3951
2023-05-02T12:45:29.160Z,78.5392
2023-05-02T12:46:30.057Z,78.4359
2023-05-02T12:47:31.380Z,78.1746
2023-05-02T12:48:32.144Z,77.8064
2023-05-02T12:49:32.922Z,78.8540
2023-05-02T12:50:34.039Z,79.6272
2023-05-02T12:51:34.861Z,81.6321
2023-05-02T12:52:35.718Z,83.3707
2023-05-02T12:53:36.286Z,83.2841
2023-05-02T12:54:36.943Z,82.6356
2023-05-02T12:55:37.676Z,82.8172
2023-05-02T12:56:38.301Z,85.5404
2023-05-02T12:57:39.080Z,88.1519
2023-05-02T12:58:39.894Z,89.6685
2023-05-02T12:59:40.347Z,90.3954
2023-05-02T13:00:41.194Z,91.2451
2023-05-02T13:01:42.586Z,91.8394
2023-05-02T13:02:43.472Z,92.2148
2023-05-02T13:03:43.930Z,92.4568
2023-05-02T13:04:45.185Z,92.4908